createdAt,value
2018-10-16T00:00:43.006Z,71.50
2018-10-16T00:01:48.066Z,71.38
2018-10-16T00:02:53.099Z,71.24
2018-10-16T00:03:58.663Z,71.11
2018-10-16T00:05:03.494Z,71.13
2018-10-16T00:06:08.823Z,70.85
2018-10-16T00:07:13.710Z,70.99
2018-10-16T00:08:18.680Z,71.04
2018-10-16T00:09:24.246Z,70.78
2018-10-16T00:10:35.709Z,70.97
2018-10-16T00:11:45.099Z,70.68
2018-10-16T00:12:53.663Z,70.81
2018-10-16T00:14:00.709Z,70.61
2018-10-16T00:15:12.865Z,70.78
2018-10-16T00:16:20.807Z,70.49
2018-10-16T00:17:27.260Z,70.59
2018-10-16T00:18:33.996Z,70.60
2018-10-16T00:19:40.346Z,70.29
2018-10-16T00:20:46.064Z,70.54
2018-10-16T00:21:50.982Z,70.33
2018-10-16T00:22:56.185Z,70.62
2018-10-16T00:24:02.096Z,70.81
2018-10-16T00:25:07.414Z,70.63
2018-10-16T00:26:15.146Z,70.60
2018-10-16T00:27:20.476Z,70.86
2018-10-16T00:28:27.271Z,70.92
2018-10-16T00:29:36.732Z,71.00
2018-10-16T00:30:43.226Z,71.36
2018-10-16T00:31:47.739Z,71.52
2018-10-16T00:32:55.340Z,71.63
2018-10-16T00:34:00.090Z,72.00
2018-10-16T00:35:06.295Z,72.13
2018-10-16T00:36:13.336Z,72.34
2018-10-16T00:37:17.861Z,72.19
2018-10-16T00:38:22.454Z,72.30
2018-10-16T00:39:28.153Z,72.24
2018-10-16T00:40:33.124Z,72.22
2018-10-16T00:41:44.654Z,72.14
2018-10-16T00:42:49.577Z,72.18
2018-10-16T00:43:55.226Z,72.24
2018-10-16T00:45:00.401Z,72.16
2018-10-16T00:46:05.917Z,72.27
2018-10-16T00:47:10.752Z,72.14
2018-10-16T00:48:17.131Z,72.23
2018-10-16T00:49:22.138Z,72.26
2018-10-16T00:50:26.734Z,72.15
2018-10-16T00:51:31.308Z,71.93
2018-10-16T00:52:36.523Z,71.96
2018-10-16T00:53:43.487Z,71.89
2018-10-16T00:54:48.595Z,72.05
2018-10-16T00:55:53.234Z,72.14
2018-10-16T00:56:57.956Z,72.07
2018-10-16T00:58:02.715Z,72.15
2018-10-16T00:59:08.141Z,72.07
2018-10-16T01:00:13.763Z,71.96
2018-10-16T01:01:22.450Z,72.05
2018-10-16T01:02:27.313Z,72.17
2018-10-16T01:03:33.312Z,72.12
2018-10-16T01:04:38.725Z,72.21
2018-10-16T01:05:43.247Z,72.28
2018-10-16T01:06:51.803Z,72.40
2018-10-16T01:07:56.895Z,72.27
2018-10-16T01:09:02.902Z,72.30
2018-10-16T01:10:08.417Z,72.39
2018-10-16T01:11:13.210Z,72.50
2018-10-16T01:12:17.884Z,72.37
2018-10-16T01:13:22.842Z,72.46
2018-10-16T01:14:27.453Z,72.63
2018-10-16T01:15:32.784Z,72.67
2018-10-16T01:16:38.074Z,72.69
2018-10-16T01:17:43.266Z,72.87
2018-10-16T01:18:48.790Z,72.93
2018-10-16T01:19:53.750Z,73.03
2018-10-16T01:20:58.584Z,73.17
2018-10-16T01:22:03.968Z,73.14
2018-10-16T01:23:08.566Z,73.10
2018-10-16T01:24:13.433Z,73.29
2018-10-16T01:25:18.332Z,73.18
2018-10-16T01:26:22.896Z,73.39
2018-10-16T01:27:27.675Z,73.33
2018-10-16T01:28:32.176Z,73.35
2018-10-16T01:29:36.715Z,73.23
2018-10-16T01:30:41.533Z,73.31
2018-10-16T01:31:45.966Z,73.39
2018-10-16T01:32:50.578Z,73.54
2018-10-16T01:33:55.157Z,73.46
2018-10-16T01:34:59.725Z,73.68
2018-10-16T01:36:09.494Z,73.58
2018-10-16T01:37:14.420Z,73.67
2018-10-16T01:38:18.863Z,73.62
2018-10-16T01:39:23.372Z,73.72
2018-10-16T01:40:27.761Z,73.76
2018-10-16T01:41:32.562Z,73.76
2018-10-16T01:42:37.226Z,73.64
2018-10-16T01:43:42.164Z,73.91
2018-10-16T01:44:46.578Z,73.89
2018-10-16T01:45:52.007Z,73.87
2018-10-16T01:46:56.480Z,73.99
2018-10-16T01:48:01.534Z,73.89
2018-10-16T01:49:06.275Z,73.98
2018-10-16T01:50:11.047Z,73.91
2018-10-16T01:51:15.702Z,74.12
2018-10-16T01:52:20.152Z,74.23
2018-10-16T01:53:24.949Z,74.58
2018-10-16T01:54:29.425Z,74.60
2018-10-16T01:55:34.010Z,74.96
2018-10-16T01:56:38.726Z,75.25
2018-10-16T01:57:43.152Z,75.54
2018-10-16T01:58:47.835Z,75.97
2018-10-16T01:59:52.532Z,76.15
2018-10-16T02:00:57.364Z,76.06
2018-10-16T02:02:01.877Z,76.37
2018-10-16T02:03:07.009Z,76.21
2018-10-16T02:04:11.466Z,76.58
2018-10-16T02:05:16.051Z,76.97
2018-10-16T02:06:20.435Z,76.88
2018-10-16T02:07:24.965Z,77.08
2018-10-16T02:08:29.629Z,77.20
2018-10-16T02:09:34.534Z,77.08
2018-10-16T02:10:39.231Z,76.91
2018-10-16T02:11:43.827Z,76.91
2018-10-16T02:12:48.519Z,76.75
2018-10-16T02:13:53.371Z,76.56
2018-10-16T02:14:58.313Z,76.27
2018-10-16T02:16:03.227Z,76.16
2018-10-16T02:17:07.766Z,75.97
2018-10-16T02:18:12.174Z,76.27
2018-10-16T02:19:16.854Z,76.18
2018-10-16T02:20:21.314Z,76.26
2018-10-16T02:21:26.706Z,76.35
2018-10-16T02:22:31.475Z,76.34
2018-10-16T02:23:36.022Z,76.19
2018-10-16T02:24:40.344Z,76.31
2018-10-16T02:25:44.838Z,75.83
2018-10-16T02:26:49.390Z,76.18
2018-10-16T02:27:53.755Z,76.06
2018-10-16T02:28:58.414Z,75.97
2018-10-16T02:30:03.074Z,75.82
2018-10-16T02:31:07.631Z,75.72
2018-10-16T02:32:11.986Z,75.68
2018-10-16T02:33:17.173Z,75.74
2018-10-16T02:34:22.064Z,75.89
2018-10-16T02:35:27.042Z,75.78
2018-10-16T02:36:31.459Z,75.86
2018-10-16T02:37:35.986Z,75.97
2018-10-16T02:38:40.481Z,75.83
2018-10-16T02:39:44.904Z,75.95
2018-10-16T02:40:49.390Z,75.91
2018-10-16T02:41:54.185Z,75.98
2018-10-16T02:42:58.546Z,75.90
2018-10-16T02:44:02.920Z,76.15
2018-10-16T02:45:07.688Z,75.95
2018-10-16T02:46:12.040Z,75.87
2018-10-16T02:47:16.380Z,75.77
2018-10-16T02:48:21.120Z,75.96
2018-10-16T02:49:25.645Z,75.95
2018-10-16T02:50:30.256Z,75.94
2018-10-16T02:51:34.685Z,76.13
2018-10-16T02:52:39.416Z,75.98
2018-10-16T02:53:43.730Z,76.05
2018-10-16T02:54:49.060Z,75.93
2018-10-16T02:55:53.387Z,76.18
2018-10-16T02:56:58.280Z,76.34
2018-10-16T02:58:02.661Z,76.39
2018-10-16T02:59:08.384Z,76.61
2018-10-16T03:00:12.711Z,76.79
2018-10-16T03:01:17.384Z,76.58
2018-10-16T03:02:21.743Z,76.95
2018-10-16T03:03:26.361Z,76.82
2018-10-16T03:04:30.737Z,77.07
2018-10-16T03:05:35.128Z,76.82
2018-10-16T03:06:39.512Z,77.07
2018-10-16T03:07:44.153Z,77.32
2018-10-16T03:08:49.511Z,77.25
2018-10-16T03:09:54.690Z,77.42
2018-10-16T03:10:59.198Z,77.77
2018-10-16T03:12:03.623Z,78.00
2018-10-16T03:13:08.201Z,78.10
2018-10-16T03:14:12.855Z,78.08
2018-10-16T03:15:17.352Z,77.82
2018-10-16T03:16:21.778Z,78.02
2018-10-16T03:17:26.177Z,77.87
2018-10-16T03:18:30.531Z,77.80
2018-10-16T03:19:34.894Z,77.79
2018-10-16T03:20:39.634Z,77.98
2018-10-16T03:21:43.960Z,77.99
2018-10-16T03:22:48.342Z,78.07
2018-10-16T03:23:52.952Z,77.89
2018-10-16T03:24:57.297Z,77.91
2018-10-16T03:26:01.660Z,77.86
2018-10-16T03:27:07.123Z,77.90
2018-10-16T03:28:11.623Z,77.84
2018-10-16T03:29:16.976Z,77.93
2018-10-16T03:30:21.622Z,77.67
2018-10-16T03:31:26.071Z,77.70
2018-10-16T03:32:30.422Z,77.51
2018-10-16T03:33:35.325Z,77.67
2018-10-16T03:34:39.815Z,77.41
2018-10-16T03:35:44.162Z,77.33
2018-10-16T03:36:48.723Z,77.14
2018-10-16T03:37:53.228Z,77.39
2018-10-16T03:38:57.712Z,77.46
2018-10-16T03:40:02.539Z,77.54
2018-10-16T03:41:06.931Z,77.32
2018-10-16T03:42:11.464Z,77.25
2018-10-16T03:43:16.001Z,77.23
2018-10-16T03:44:20.394Z,77.11
2018-10-16T03:45:24.885Z,77.20
2018-10-16T03:46:30.294Z,77.12
2018-10-16T03:47:34.758Z,77.19
2018-10-16T03:48:39.232Z,77.00
2018-10-16T03:49:43.570Z,77.03
2018-10-16T03:50:48.049Z,77.34
2018-10-16T03:51:52.556Z,77.33
2018-10-16T03:52:57.369Z,77.17
2018-10-16T03:54:01.838Z,77.14
2018-10-16T03:55:06.853Z,76.88
2018-10-16T03:56:11.251Z,77.05
2018-10-16T03:57:15.652Z,76.93
2018-10-16T03:58:20.124Z,77.05
2018-10-16T03:59:24.946Z,76.90
2018-10-16T04:00:29.458Z,76.86
2018-10-16T04:01:34.081Z,77.12
2018-10-16T04:02:38.641Z,76.96
2018-10-16T04:03:43.270Z,76.90
2018-10-16T04:04:47.708Z,77.01
2018-10-16T04:05:52.638Z,76.89
2018-10-16T04:06:57.194Z,76.98
2018-10-16T04:08:01.748Z,77.00
2018-10-16T04:09:07.377Z,77.18
2018-10-16T04:10:11.977Z,77.62
2018-10-16T04:11:16.426Z,77.55
2018-10-16T04:12:21.406Z,77.75
2018-10-16T04:13:26.023Z,77.88
2018-10-16T04:14:30.424Z,78.35
2018-10-16T04:15:34.921Z,78.12
2018-10-16T04:16:40.351Z,78.19
2018-10-16T04:17:44.785Z,78.42
2018-10-16T04:18:49.738Z,78.39
2018-10-16T04:19:54.403Z,78.41
2018-10-16T04:20:58.855Z,78.25
2018-10-16T04:22:03.474Z,78.14
2018-10-16T04:23:08.096Z,78.29
2018-10-16T04:24:16.428Z,78.13
2018-10-16T04:25:21.251Z,78.51
2018-10-16T04:26:25.719Z,78.43
2018-10-16T04:27:30.107Z,78.44
2018-10-16T04:28:34.682Z,78.53
2018-10-16T04:29:39.163Z,78.46
2018-10-16T04:30:43.600Z,78.65
2018-10-16T04:31:48.684Z,78.43
2018-10-16T04:32:53.657Z,78.66
2018-10-16T04:33:58.021Z,78.94
2018-10-16T04:35:02.668Z,78.68
2018-10-16T04:36:07.160Z,78.59
2018-10-16T04:37:11.613Z,78.73
2018-10-16T04:38:16.344Z,78.77
2018-10-16T04:39:20.865Z,78.72
2018-10-16T04:40:25.396Z,78.79
2018-10-16T04:41:29.862Z,78.75
2018-10-16T04:42:34.247Z,78.73
2018-10-16T04:43:38.825Z,78.46
2018-10-16T04:44:43.232Z,78.86
2018-10-16T04:45:47.891Z,78.83
2018-10-16T04:46:52.363Z,78.77
2018-10-16T04:47:56.828Z,78.88
2018-10-16T04:49:01.507Z,79.21
2018-10-16T04:50:06.416Z,78.93
2018-10-16T04:51:10.789Z,79.21
2018-10-16T04:52:15.170Z,79.15
2018-10-16T04:53:19.747Z,79.16
2018-10-16T04:54:24.587Z,78.92
2018-10-16T04:55:29.571Z,79.11
2018-10-16T04:56:34.727Z,79.35
2018-10-16T04:57:39.113Z,79.20
2018-10-16T04:58:44.506Z,79.18
2018-10-16T04:59:48.886Z,79.63
2018-10-16T05:00:53.399Z,79.42
2018-10-16T05:01:57.966Z,79.61
2018-10-16T05:03:02.762Z,79.78
2018-10-16T05:04:07.502Z,80.06
2018-10-16T05:05:18.984Z,80.48
2018-10-16T05:06:23.392Z,80.25
2018-10-16T05:07:27.898Z,80.49
2018-10-16T05:08:32.391Z,80.86
2018-10-16T05:09:37.168Z,80.58
2018-10-16T05:10:41.616Z,80.66
2018-10-16T05:11:49.976Z,80.89
2018-10-16T05:12:54.411Z,80.62
2018-10-16T05:13:58.835Z,80.43
2018-10-16T05:15:03.385Z,80.69
2018-10-16T05:16:08.006Z,80.50
2018-10-16T05:17:12.661Z,80.45
2018-10-16T05:18:18.899Z,80.39
2018-10-16T05:19:23.381Z,80.57
2018-10-16T05:20:27.807Z,80.42
2018-10-16T05:21:32.294Z,80.37
2018-10-16T05:22:37.283Z,80.24
2018-10-16T05:23:41.787Z,80.58
2018-10-16T05:24:46.292Z,80.33
2018-10-16T05:25:51.681Z,80.48
2018-10-16T05:26:56.080Z,80.59
2018-10-16T05:28:00.519Z,80.70
2018-10-16T05:29:05.492Z,80.59
2018-10-16T05:30:09.911Z,80.72
2018-10-16T05:31:14.655Z,80.65
2018-10-16T05:32:19.344Z,80.76
2018-10-16T05:33:23.851Z,80.57
2018-10-16T05:47:27.586Z,80.21
2018-10-16T05:48:33.764Z,80.42
2018-10-16T05:49:38.984Z,80.18
2018-10-16T05:50:44.055Z,80.40
2018-10-16T05:51:48.631Z,80.23
2018-10-16T05:52:54.760Z,80.29
2018-10-16T05:53:59.911Z,79.92
2018-10-16T05:55:04.681Z,80.21
2018-10-16T05:56:09.155Z,80.02
2018-10-16T05:57:13.790Z,80.26
2018-10-16T05:58:18.459Z,80.46
2018-10-16T05:59:24.389Z,80.28
2018-10-16T06:00:36.080Z,80.36
2018-10-16T06:01:44.079Z,80.34
2018-10-16T06:02:51.843Z,80.16
2018-10-16T06:03:56.538Z,80.07
2018-10-16T06:05:01.243Z,79.90
2018-10-16T06:06:06.699Z,79.70
2018-10-16T06:07:11.688Z,79.61
2018-10-16T06:08:17.398Z,79.58
2018-10-16T06:09:26.525Z,79.56
2018-10-16T06:10:31.525Z,79.58
2018-10-16T06:11:47.268Z,79.38
2018-10-16T06:12:54.069Z,79.28
2018-10-16T06:14:00.464Z,79.24
2018-10-16T06:15:05.405Z,79.17
2018-10-16T06:16:10.014Z,79.04
2018-10-16T06:17:14.882Z,78.79
2018-10-16T06:18:19.590Z,78.87
2018-10-16T06:19:26.480Z,78.96
2018-10-16T06:20:31.000Z,78.94
2018-10-16T06:21:36.075Z,78.46
2018-10-16T06:22:41.794Z,78.57
2018-10-16T06:23:46.559Z,78.61
2018-10-16T06:24:50.889Z,78.33
2018-10-16T06:25:56.345Z,77.91
2018-10-16T06:27:02.122Z,77.38
2018-10-16T06:28:12.638Z,76.93
2018-10-16T06:29:16.990Z,76.62
2018-10-16T06:30:22.576Z,76.41
2018-10-16T06:31:26.966Z,76.28
2018-10-16T06:32:31.412Z,75.71
2018-10-16T06:33:35.893Z,74.93
2018-10-16T06:34:41.204Z,74.20
2018-10-16T06:35:45.689Z,73.81
2018-10-16T06:36:50.459Z,73.33
2018-10-16T06:37:54.846Z,72.31
2018-10-16T06:39:00.252Z,71.57
2018-10-16T06:40:04.764Z,70.86
2018-10-16T06:41:09.636Z,70.35
2018-10-16T06:42:13.956Z,69.17
2018-10-16T06:43:18.820Z,68.82
2018-10-16T06:44:23.296Z,68.37
2018-10-16T06:45:27.743Z,67.75
2018-10-16T06:46:32.248Z,67.08
2018-10-16T06:47:36.717Z,66.55
2018-10-16T06:48:41.534Z,66.05
2018-10-16T06:49:46.098Z,64.83
2018-10-16T06:50:50.518Z,63.92
2018-10-16T06:51:56.845Z,63.12
2018-10-16T06:53:02.216Z,62.18
2018-10-16T06:54:06.609Z,61.90
2018-10-16T06:55:11.963Z,61.39
2018-10-16T06:56:17.725Z,60.54
2018-10-16T06:57:23.506Z,60.66
2018-10-16T06:58:28.157Z,60.42
2018-10-16T06:59:33.312Z,60.24
2018-10-16T07:00:37.759Z,60.30
2018-10-16T07:01:42.252Z,59.92
2018-10-16T07:02:47.428Z,60.17
2018-10-16T07:03:52.393Z,58.21
2018-10-16T07:04:57.006Z,56.85
2018-10-16T07:06:02.834Z,55.18
2018-10-16T07:07:08.713Z,54.49
2018-10-16T07:08:12.964Z,52.98
2018-10-16T07:09:17.805Z,52.92
2018-10-16T07:10:22.265Z,51.95
2018-10-16T07:11:26.665Z,52.67
2018-10-16T07:12:31.273Z,52.46
2018-10-16T07:13:37.080Z,100.00
2018-10-16T07:14:42.590Z,100.00
2018-10-16T07:15:47.321Z,51.96
2018-10-16T07:16:52.815Z,51.62
2018-10-16T07:17:57.394Z,52.33
2018-10-16T07:19:02.120Z,52.29
2018-10-16T07:20:07.223Z,51.97
2018-10-16T07:21:15.788Z,51.70
2018-10-16T07:22:21.406Z,51.19
2018-10-16T07:23:26.818Z,50.85
2018-10-16T07:24:35.327Z,50.58
2018-10-16T07:25:39.854Z,49.04
2018-10-16T07:26:45.093Z,47.69
2018-10-16T07:27:49.978Z,47.38
2018-10-16T07:28:54.425Z,47.19
2018-10-16T07:29:59.004Z,48.95
2018-10-16T07:31:03.598Z,49.76
2018-10-16T07:32:08.057Z,50.76
2018-10-16T07:33:13.668Z,52.10
2018-10-16T07:34:20.437Z,52.47
2018-10-16T07:35:26.454Z,52.42
2018-10-16T07:36:31.157Z,52.41
2018-10-16T07:37:36.166Z,51.95
2018-10-16T07:38:41.451Z,51.51
2018-10-16T07:39:45.860Z,51.94
2018-10-16T07:40:50.784Z,51.37
2018-10-16T07:41:55.232Z,52.20
2018-10-16T07:43:01.172Z,52.54
2018-10-16T07:44:05.715Z,52.61
2018-10-16T07:45:14.813Z,54.05
2018-10-16T07:46:19.788Z,54.76
2018-10-16T07:47:25.809Z,55.12
2018-10-16T07:48:30.852Z,55.75
2018-10-16T07:49:35.286Z,56.73
2018-10-16T07:50:41.078Z,57.17
2018-10-16T07:51:46.842Z,57.93
2018-10-16T07:52:51.524Z,58.03
2018-10-16T07:53:57.795Z,57.80
2018-10-16T07:55:04.473Z,57.45
2018-10-16T07:56:10.472Z,56.09
2018-10-16T07:57:15.535Z,55.27
2018-10-16T07:58:20.992Z,53.89
2018-10-16T07:59:25.626Z,53.07
2018-10-16T08:00:31.299Z,53.88
2018-10-16T08:01:37.565Z,54.46
2018-10-16T08:02:43.925Z,54.88
2018-10-16T08:03:48.669Z,54.94
2018-10-16T08:04:54.123Z,55.33
2018-10-16T08:05:59.232Z,55.03
2018-10-16T08:07:04.086Z,55.43
2018-10-16T08:08:08.660Z,55.67
2018-10-16T08:09:16.219Z,55.77
2018-10-16T08:10:22.401Z,55.27
2018-10-16T08:11:27.345Z,55.54
2018-10-16T08:12:32.396Z,55.83
2018-10-16T08:13:39.069Z,56.01
2018-10-16T08:14:44.696Z,56.27
2018-10-16T08:15:50.100Z,57.11
2018-10-16T08:16:56.126Z,58.18
2018-10-16T08:18:02.827Z,58.72
2018-10-16T08:19:08.750Z,58.61
2018-10-16T08:20:14.148Z,58.18
2018-10-16T08:21:20.323Z,57.77
2018-10-16T08:22:25.448Z,57.11
2018-10-16T08:23:30.450Z,57.81
2018-10-16T08:24:35.010Z,58.39
2018-10-16T08:25:40.227Z,59.07
2018-10-16T08:26:45.471Z,59.45
2018-10-16T08:27:50.504Z,59.75
2018-10-16T08:28:55.260Z,59.94
2018-10-16T08:30:01.658Z,60.25
2018-10-16T08:31:07.045Z,60.08
2018-10-16T08:32:12.908Z,59.81
2018-10-16T08:33:18.401Z,59.81
2018-10-16T08:34:23.033Z,59.69
2018-10-16T08:35:27.569Z,59.87
2018-10-16T08:36:32.744Z,59.77
2018-10-16T08:41:59.853Z,59.96
2018-10-16T08:43:14.226Z,54.21
2018-10-16T08:44:22.113Z,51.50
2018-10-16T08:45:31.656Z,49.97
2018-10-16T08:46:41.889Z,47.92
2018-10-16T08:47:51.929Z,46.80
2018-10-16T08:49:02.012Z,43.90
2018-10-16T08:50:12.201Z,43.41
2018-10-16T08:51:23.422Z,42.33
2018-10-16T08:52:29.377Z,40.86
2018-10-16T08:53:34.492Z,39.58
2018-10-16T08:54:40.280Z,38.96
2018-10-16T08:55:45.422Z,37.69
2018-10-16T08:56:51.119Z,36.71
2018-10-16T08:57:56.218Z,34.49
2018-10-16T08:59:01.992Z,34.42
2018-10-16T09:00:10.158Z,34.38
2018-10-16T09:01:15.552Z,34.26
2018-10-16T09:02:20.736Z,33.33
2018-10-16T09:03:25.597Z,32.97
2018-10-16T09:04:30.484Z,33.75
2018-10-16T09:05:35.030Z,33.08
2018-10-16T09:06:39.992Z,32.55
2018-10-16T09:07:45.509Z,33.56
2018-10-16T09:08:49.965Z,32.29
2018-10-16T09:09:57.476Z,32.26
2018-10-16T09:11:02.348Z,31.25
2018-10-16T09:12:09.688Z,31.80
2018-10-16T09:13:15.302Z,31.76
2018-10-16T09:14:22.553Z,31.32
2018-10-16T09:15:31.442Z,31.61
2018-10-16T09:16:38.604Z,30.05
2018-10-16T09:17:45.165Z,29.81
2018-10-16T09:18:51.438Z,30.02
2018-10-16T09:19:57.633Z,28.79
2018-10-16T09:21:04.731Z,27.79
2018-10-16T09:22:09.909Z,27.13
2018-10-16T09:23:19.513Z,26.54
2018-10-16T09:24:30.228Z,26.42
2018-10-16T09:25:38.350Z,25.69
2018-10-16T09:26:43.731Z,25.55
2018-10-16T09:27:52.701Z,25.58
2018-10-16T09:28:59.182Z,25.98
2018-10-16T09:30:08.120Z,26.73
2018-10-16T09:31:13.169Z,27.03
2018-10-16T09:32:28.588Z,25.41
2018-10-16T09:33:34.390Z,25.04
2018-10-16T09:34:47.082Z,24.32
2018-10-16T09:35:54.514Z,26.13
2018-10-16T09:37:06.273Z,26.46
2018-10-16T09:38:12.772Z,26.20
2018-10-16T09:39:17.818Z,26.82
2018-10-16T09:40:29.523Z,27.31
2018-10-16T09:41:34.555Z,26.97
2018-10-16T09:42:41.222Z,25.88
2018-10-16T09:43:48.269Z,26.85
2018-10-16T09:44:53.306Z,25.43
2018-10-16T09:45:59.597Z,25.15
2018-10-16T09:47:04.725Z,24.96
2018-10-16T09:48:10.183Z,25.29
2018-10-16T09:49:15.839Z,25.21
2018-10-16T09:50:21.154Z,26.46
2018-10-16T09:51:27.581Z,26.70
2018-10-16T09:52:32.320Z,25.94
2018-10-16T09:53:38.252Z,26.08
2018-10-16T09:54:43.122Z,26.63
2018-10-16T09:55:49.285Z,25.50
2018-10-16T09:56:55.696Z,24.93
2018-10-16T09:58:01.184Z,24.24
2018-10-16T09:59:05.657Z,25.43
2018-10-16T10:00:16.108Z,24.75
2018-10-16T10:01:25.876Z,26.29
2018-10-16T10:02:32.707Z,24.06
2018-10-16T10:03:39.274Z,24.87
2018-10-16T10:04:45.777Z,25.25
2018-10-16T10:05:51.996Z,25.05
2018-10-16T10:06:56.876Z,25.26
2018-10-16T10:08:02.078Z,24.85
2018-10-16T10:09:10.113Z,24.68
2018-10-16T10:10:16.442Z,23.94
2018-10-16T10:11:22.130Z,25.21
2018-10-16T10:12:26.926Z,23.41
2018-10-16T10:13:33.189Z,23.24
2018-10-16T10:14:39.092Z,25.35
2018-10-16T10:15:47.385Z,24.11
2018-10-16T10:16:55.990Z,23.93
2018-10-16T10:18:01.079Z,22.68
2018-10-16T10:19:08.099Z,23.73
2018-10-16T10:20:13.358Z,25.11
2018-10-16T10:21:27.388Z,25.87
2018-10-16T10:22:33.543Z,26.56
2018-10-16T10:23:38.477Z,27.05
2018-10-16T10:24:44.371Z,27.60
2018-10-16T10:25:50.443Z,28.65
2018-10-16T10:27:02.369Z,28.97
2018-10-16T10:28:07.947Z,29.63
2018-10-16T10:29:13.172Z,30.18
2018-10-16T10:30:20.690Z,30.54
2018-10-16T10:31:27.008Z,31.78
2018-10-16T10:32:33.532Z,29.67
2018-10-16T10:33:38.647Z,29.32
2018-10-16T10:46:38.657Z,26.19
2018-10-16T10:47:43.460Z,26.99
2018-10-16T10:48:49.327Z,26.80
2018-10-16T10:49:55.704Z,27.56
2018-10-16T10:51:00.816Z,26.78
2018-10-16T10:52:05.446Z,27.67
2018-10-16T10:53:11.456Z,26.48
2018-10-16T10:54:16.077Z,26.21
2018-10-16T10:55:21.186Z,24.47
2018-10-16T10:56:25.982Z,24.96
2018-10-16T10:57:31.322Z,23.86
2018-10-16T10:58:36.540Z,24.75
2018-10-16T10:59:42.164Z,23.52
2018-10-16T11:00:46.906Z,23.94
2018-10-16T11:01:51.637Z,24.92
2018-10-16T11:02:56.183Z,23.47
2018-10-16T11:04:00.937Z,23.84
2018-10-16T11:05:06.898Z,26.08
2018-10-16T11:06:11.399Z,26.06
2018-10-16T11:07:17.108Z,26.71
2018-10-16T11:08:25.597Z,27.01
2018-10-16T11:09:30.359Z,26.41
2018-10-16T11:10:36.319Z,25.21
2018-10-16T11:11:43.084Z,25.17
2018-10-16T11:12:48.099Z,25.54
2018-10-16T11:13:53.298Z,23.96
2018-10-16T11:14:58.382Z,24.13
2018-10-16T11:16:04.098Z,25.61
2018-10-16T11:17:08.561Z,24.91
2018-10-16T11:18:13.207Z,26.28
2018-10-16T11:19:17.710Z,24.71
2018-10-16T11:20:23.752Z,26.37
2018-10-16T11:21:31.861Z,26.57
2018-10-16T11:22:36.299Z,27.23
2018-10-16T11:23:41.552Z,27.65
2018-10-16T11:24:46.138Z,27.74
2018-10-16T11:25:51.232Z,26.91
2018-10-16T11:26:58.241Z,26.13
2018-10-16T11:28:03.776Z,26.82
2018-10-16T11:29:08.133Z,26.57
2018-10-16T11:30:14.763Z,28.19
2018-10-16T11:31:19.285Z,28.08
2018-10-16T11:32:24.387Z,28.51
2018-10-16T11:33:29.701Z,28.08
2018-10-16T11:34:36.050Z,27.89
2018-10-16T11:35:40.430Z,27.87
2018-10-16T11:36:45.604Z,28.78
2018-10-16T11:37:50.768Z,29.63
2018-10-16T11:38:55.206Z,29.51
2018-10-16T11:40:01.727Z,29.29
2018-10-16T11:41:10.314Z,28.74
2018-10-16T11:42:14.705Z,28.31
2018-10-16T11:43:19.823Z,28.20
2018-10-16T11:44:26.346Z,28.56
2018-10-16T11:45:30.915Z,28.99
2018-10-16T11:46:37.500Z,29.80
2018-10-16T11:47:42.434Z,29.66
2018-10-16T11:48:46.931Z,29.67
2018-10-16T11:49:52.542Z,29.27
2018-10-16T11:50:57.500Z,29.89
2018-10-16T11:52:02.310Z,30.48
2018-10-16T11:53:08.042Z,31.21
2018-10-16T11:54:14.591Z,30.36
2018-10-16T11:55:20.207Z,30.24
2018-10-16T11:56:27.209Z,29.77
2018-10-16T11:57:32.035Z,31.16
2018-10-16T11:58:37.407Z,31.50
2018-10-16T11:59:43.829Z,31.82
2018-10-16T12:00:49.614Z,30.62
2018-10-16T12:01:56.188Z,31.75
2018-10-16T12:03:00.687Z,31.05
2018-10-16T12:04:06.233Z,31.93
2018-10-16T12:05:13.683Z,32.53
2018-10-16T12:06:19.892Z,31.36
2018-10-16T12:07:24.570Z,31.68
2018-10-16T12:08:29.511Z,31.00
2018-10-16T12:09:33.956Z,31.05
2018-10-16T12:10:39.725Z,29.79
2018-10-16T12:11:44.507Z,29.26
2018-10-16T12:12:49.474Z,29.03
2018-10-16T12:13:54.655Z,29.24
2018-10-16T12:15:00.035Z,28.41
2018-10-16T12:16:04.558Z,27.87
2018-10-16T12:17:13.155Z,27.71
2018-10-16T12:18:24.890Z,27.35
2018-10-16T12:19:35.644Z,27.45
2018-10-16T12:20:44.963Z,27.73
2018-10-16T12:21:50.076Z,27.44
2018-10-16T12:22:54.550Z,26.76
2018-10-16T12:23:59.964Z,26.28
2018-10-16T12:25:05.019Z,26.14
2018-10-16T12:26:11.887Z,25.88
2018-10-16T12:27:17.042Z,26.39
2018-10-16T12:28:23.169Z,24.85
2018-10-16T12:29:29.344Z,24.36
2018-10-16T12:30:34.860Z,24.68
2018-10-16T12:31:42.563Z,23.75
2018-10-16T12:32:47.773Z,24.81
2018-10-16T12:33:52.244Z,23.36
2018-10-16T12:34:58.624Z,23.21
2018-10-16T12:36:04.367Z,23.12
2018-10-16T12:37:08.882Z,24.16
2018-10-16T12:38:13.779Z,24.18
2018-10-16T12:39:19.572Z,23.31
2018-10-16T12:40:24.048Z,22.45
2018-10-16T12:41:28.659Z,23.08
2018-10-16T12:42:36.587Z,24.73
2018-10-16T12:43:41.183Z,23.65
2018-10-16T12:44:45.858Z,24.41
2018-10-16T12:45:50.462Z,24.03
2018-10-16T12:46:55.042Z,23.50
2018-10-16T12:47:59.656Z,24.38
2018-10-16T12:49:04.165Z,23.94
2018-10-16T12:50:08.777Z,22.94
2018-10-16T12:51:14.604Z,22.80
2018-10-16T12:52:25.634Z,21.92
2018-10-16T12:53:31.358Z,22.48
2018-10-16T12:54:35.831Z,22.71
2018-10-16T12:55:40.242Z,21.39
2018-10-16T12:56:44.667Z,21.75
2018-10-16T12:57:49.501Z,21.16
2018-10-16T12:58:53.933Z,20.47
2018-10-16T12:59:58.499Z,20.40
2018-10-16T13:01:03.113Z,20.53
2018-10-16T13:02:07.638Z,20.84
2018-10-16T13:03:13.527Z,20.23
2018-10-16T13:04:19.306Z,22.25
2018-10-16T13:05:23.984Z,23.33
2018-10-16T13:06:28.959Z,25.12
2018-10-16T13:07:37.662Z,25.65
2018-10-16T13:08:42.438Z,25.37
2018-10-16T13:09:49.536Z,24.98
2018-10-16T13:10:54.176Z,24.58
2018-10-16T13:11:59.157Z,24.80
2018-10-16T13:13:04.567Z,24.33
2018-10-16T13:14:09.915Z,23.11
2018-10-16T13:15:16.586Z,24.29
2018-10-16T13:16:21.419Z,21.83
2018-10-16T13:17:26.562Z,22.16
2018-10-16T13:18:32.299Z,23.58
2018-10-16T13:19:38.793Z,22.75
2018-10-16T13:20:43.683Z,22.45
2018-10-16T13:21:51.836Z,21.43
2018-10-16T13:22:57.287Z,22.60
2018-10-16T13:24:02.405Z,22.15
2018-10-16T13:25:07.726Z,22.83
2018-10-16T13:26:12.158Z,23.17
2018-10-16T13:27:16.912Z,21.52
2018-10-16T13:28:22.430Z,22.04
2018-10-16T13:29:27.214Z,22.16
2018-10-16T13:30:31.912Z,23.81
2018-10-16T13:31:38.342Z,24.19
2018-10-16T13:32:44.105Z,23.46
2018-10-16T13:33:48.523Z,24.35
2018-10-16T13:34:53.853Z,23.53
2018-10-16T13:35:59.359Z,24.56
2018-10-16T13:37:04.474Z,24.58
2018-10-16T13:38:10.524Z,25.02
2018-10-16T13:39:15.854Z,25.98
2018-10-16T13:40:21.002Z,27.34
2018-10-16T13:41:26.891Z,27.53
2018-10-16T13:42:32.519Z,26.60
2018-10-16T13:43:43.571Z,27.09
2018-10-16T13:44:48.950Z,27.77
2018-10-16T13:45:54.956Z,27.73
2018-10-16T13:47:00.099Z,27.31
2018-10-16T13:48:05.340Z,28.64
2018-10-16T13:49:11.907Z,27.07
2018-10-16T13:50:18.728Z,28.78
2018-10-16T13:51:23.859Z,29.00
2018-10-16T13:52:29.666Z,28.54
2018-10-16T13:53:36.283Z,28.54
2018-10-16T13:54:43.882Z,28.80
2018-10-16T13:55:49.319Z,29.70
2018-10-16T14:37:40.509Z,32.72
2018-10-16T14:38:45.785Z,33.76
2018-10-16T14:39:50.293Z,34.47
2018-10-16T14:40:54.831Z,33.64
2018-10-16T14:41:59.470Z,34.63
2018-10-16T14:43:04.073Z,35.05
2018-10-16T14:44:09.908Z,35.51
2018-10-16T14:45:15.642Z,36.55
2018-10-16T14:46:20.372Z,37.01
2018-10-16T14:47:24.921Z,37.24
2018-10-16T14:48:35.428Z,37.21
2018-10-16T14:49:41.387Z,37.17
2018-10-16T14:50:47.101Z,37.44
2018-10-16T14:51:52.355Z,38.66
2018-10-16T14:52:56.822Z,38.87
2018-10-16T14:54:05.506Z,39.47
2018-10-16T14:55:11.720Z,38.97
2018-10-16T14:56:16.926Z,39.05
2018-10-16T14:57:23.397Z,38.94
2018-10-16T14:58:29.332Z,38.67
2018-10-16T14:59:34.809Z,38.46
2018-10-16T15:00:41.448Z,39.18
2018-10-16T15:01:47.936Z,39.02
2018-10-16T15:02:54.037Z,39.00
2018-10-16T15:04:00.381Z,39.20
2018-10-16T15:05:05.317Z,39.67
2018-10-16T15:06:09.946Z,39.79
2018-10-16T15:07:15.621Z,39.70
2018-10-16T15:08:23.841Z,40.01
2018-10-16T15:09:32.469Z,41.26
2018-10-16T15:10:41.720Z,41.77
2018-10-16T15:11:52.362Z,41.82
2018-10-16T15:13:05.284Z,42.24
2018-10-16T15:14:16.737Z,41.75